Terminal Aerodrome Forecast
Issued by NWS

Home | Current Version | Previous Version | Text Only | Print | Product List | Glossary On
Versions: 1 2 3 4 5 6 7 8 9 10 11 12 13 14 15 16 17 18
000
FTUS41 KBOX 170523
TAFBAF
TAF
KBAF 170523Z 1706/1806 VRB06KT P6SM OVC140
     FM171900 00000KT P6SM -RA OVC080
     FM172100 00000KT 3SM -FZRA OVC045
     FM172300 VRB03KT 3SM -FZRAPL OVC020
     FM180200 02004KT 2SM -PLSN OVC008=

USA.gov is the U.S. government's official web portal to all federal, state and local government web resources and services.